sensor_id;sensor_type;location;lat;lon;timestamp;P1;durP1;ratioP1;P2;durP2;ratioP2
21729;SDS011;11027;51.030;13.812;2023-01-15T00:02:19;2.15;;;0.82;;
21729;SDS011;11027;51.030;13.812;2023-01-15T00:04:44;2.10;;;0.68;;
21729;SDS011;11027;51.030;13.812;2023-01-15T00:07:10;0.93;;;0.70;;
21729;SDS011;11027;51.030;13.812;2023-01-15T00:09:35;2.03;;;0.75;;
21729;SDS011;11027;51.030;13.812;2023-01-15T00:12:00;1.83;;;0.80;;
21729;SDS011;11027;51.030;13.812;2023-01-15T00:14:26;1.08;;;0.65;;
21729;SDS011;11027;51.030;13.812;2023-01-15T00:16:51;1.30;;;0.88;;
21729;SDS011;11027;51.030;13.812;2023-01-15T00:19:17;0.90;;;0.80;;
21729;SDS011;11027;51.030;13.812;2023-01-15T00:21:42;1.50;;;0.85;;
21729;SDS011;11027;51.030;13.812;2023-01-15T00:24:07;1.42;;;0.65;;
21729;SDS011;11027;51.030;13.812;2023-01-15T00:26:51;0.80;;;0.80;;
21729;SDS011;11027;51.030;13.812;2023-01-15T00:29:35;1.45;;;0.90;;
21729;SDS011;11027;51.030;13.812;2023-01-15T00:32:01;1.27;;;0.80;;
21729;SDS011;11027;51.030;13.812;2023-01-15T00:34:29;0.98;;;0.77;;
21729;SDS011;11027;51.030;13.812;2023-01-15T00:36:55;1.48;;;0.90;;
21729;SDS011;11027;51.030;13.812;2023-01-15T00:39:20;1.35;;;0.88;;
21729;SDS011;11027;51.030;13.812;2023-01-15T00:41:47;2.45;;;0.95;;
21729;SDS011;11027;51.030;13.812;2023-01-15T00:44:13;1.67;;;1.10;;
21729;SDS011;11027;51.030;13.812;2023-01-15T00:46:39;1.20;;;0.82;;
21729;SDS011;11027;51.030;13.812;2023-01-15T00:49:04;1.13;;;0.85;;
21729;SDS011;11027;51.030;13.812;2023-01-15T00:51:29;1.67;;;0.82;;
21729;SDS011;11027;51.030;13.812;2023-01-15T00:53:55;0.60;;;0.60;;
21729;SDS011;11027;51.030;13.812;2023-01-15T00:56:21;1.60;;;1.08;;
21729;SDS011;11027;51.030;13.812;2023-01-15T00:58:46;1.38;;;0.70;;
21729;SDS011;11027;51.030;13.812;2023-01-15T01:01:12;0.60;;;0.60;;
21729;SDS011;11027;51.030;13.812;2023-01-15T01:03:38;1.40;;;0.70;;
21729;SDS011;11027;51.030;13.812;2023-01-15T01:06:03;1.17;;;1.08;;
21729;SDS011;11027;51.030;13.812;2023-01-15T01:08:29;1.10;;;1.00;;
21729;SDS011;11027;51.030;13.812;2023-01-15T01:11:01;1.30;;;1.13;;
21729;SDS011;11027;51.030;13.812;2023-01-15T01:13:27;1.40;;;0.90;;
21729;SDS011;11027;51.030;13.812;2023-01-15T01:15:53;2.00;;;1.00;;
21729;SDS011;11027;51.030;13.812;2023-01-15T01:18:18;2.72;;;1.00;;
21729;SDS011;11027;51.030;13.812;2023-01-15T01:20:43;2.53;;;1.67;;
21729;SDS011;11027;51.030;13.812;2023-01-15T01:23:09;1.25;;;0.90;;
21729;SDS011;11027;51.030;13.812;2023-01-15T01:25:34;0.98;;;0.80;;
21729;SDS011;11027;51.030;13.812;2023-01-15T01:28:00;1.77;;;1.45;;
21729;SDS011;11027;51.030;13.812;2023-01-15T01:30:25;1.80;;;1.40;;
21729;SDS011;11027;51.030;13.812;2023-01-15T01:32:51;1.60;;;1.33;;
21729;SDS011;11027;51.030;13.812;2023-01-15T01:35:16;1.27;;;1.17;;
21729;SDS011;11027;51.030;13.812;2023-01-15T01:37:41;2.40;;;1.40;;
21729;SDS011;11027;51.030;13.812;2023-01-15T01:40:07;2.63;;;1.58;;
21729;SDS011;11027;51.030;13.812;2023-01-15T01:42:33;2.35;;;1.90;;
21729;SDS011;11027;51.030;13.812;2023-01-15T01:44:59;2.80;;;2.28;;
21729;SDS011;11027;51.030;13.812;2023-01-15T01:47:26;3.53;;;2.85;;
21729;SDS011;11027;51.030;13.812;2023-01-15T01:49:56;2.90;;;1.90;;
21729;SDS011;11027;51.030;13.812;2023-01-15T01:52:26;2.55;;;1.60;;
21729;SDS011;11027;51.030;13.812;2023-01-15T01:54:59;2.22;;;1.70;;
21729;SDS011;11027;51.030;13.812;2023-01-15T01:57:26;2.58;;;1.90;;
21729;SDS011;11027;51.030;13.812;2023-01-15T01:59:52;1.88;;;1.73;;
21729;SDS011;11027;51.030;13.812;2023-01-15T02:02:17;4.03;;;1.92;;
21729;SDS011;11027;51.030;13.812;2023-01-15T02:04:45;1.88;;;1.63;;
21729;SDS011;11027;51.030;13.812;2023-01-15T02:07:11;2.00;;;1.80;;
21729;SDS011;11027;51.030;13.812;2023-01-15T02:09:36;3.42;;;1.60;;
21729;SDS011;11027;51.030;13.812;2023-01-15T02:12:08;2.20;;;1.70;;
21729;SDS011;11027;51.030;13.812;2023-01-15T02:15:03;2.28;;;1.42;;
21729;SDS011;11027;51.030;13.812;2023-01-15T02:20:16;1.70;;;1.33;;
21729;SDS011;11027;51.030;13.812;2023-01-15T02:23:07;4.22;;;1.35;;
21729;SDS011;11027;51.030;13.812;2023-01-15T02:25:53;1.27;;;1.13;;
21729;SDS011;11027;51.030;13.812;2023-01-15T02:28:51;1.88;;;1.70;;
21729;SDS011;11027;51.030;13.812;2023-01-15T02:31:23;2.45;;;1.80;;
21729;SDS011;11027;51.030;13.812;2023-01-15T02:34:08;2.22;;;1.30;;
21729;SDS011;11027;51.030;13.812;2023-01-15T02:36:36;2.00;;;1.23;;
21729;SDS011;11027;51.030;13.812;2023-01-15T02:39:06;1.45;;;1.30;;
21729;SDS011;11027;51.030;13.812;2023-01-15T02:41:41;1.30;;;0.98;;
21729;SDS011;11027;51.030;13.812;2023-01-15T02:44:10;2.22;;;1.10;;
21729;SDS011;11027;51.030;13.812;2023-01-15T02:46:37;0.93;;;0.93;;
21729;SDS011;11027;51.030;13.812;2023-01-15T02:49:05;1.30;;;1.17;;
21729;SDS011;11027;51.030;13.812;2023-01-15T02:51:36;1.27;;;1.10;;
21729;SDS011;11027;51.030;13.812;2023-01-15T02:54:05;1.20;;;1.10;;
21729;SDS011;11027;51.030;13.812;2023-01-15T02:56:36;1.23;;;0.90;;
21729;SDS011;11027;51.030;13.812;2023-01-15T02:59:05;1.52;;;1.00;;
21729;SDS011;11027;51.030;13.812;2023-01-15T03:01:35;1.75;;;1.20;;
21729;SDS011;11027;51.030;13.812;2023-01-15T03:04:12;2.47;;;1.10;;
21729;SDS011;11027;51.030;13.812;2023-01-15T03:06:45;2.00;;;1.00;;
21729;SDS011;11027;51.030;13.812;2023-01-15T03:09:33;1.10;;;0.85;;
21729;SDS011;11027;51.030;13.812;2023-01-15T03:14:55;0.75;;;0.70;;
21729;SDS011;11027;51.030;13.812;2023-01-15T03:17:34;1.50;;;0.88;;
21729;SDS011;11027;51.030;13.812;2023-01-15T03:22:43;2.45;;;1.20;;
21729;SDS011;11027;51.030;13.812;2023-01-15T03:25:23;0.80;;;0.80;;
21729;SDS011;11027;51.030;13.812;2023-01-15T03:27:53;1.02;;;0.93;;
21729;SDS011;11027;51.030;13.812;2023-01-15T03:30:23;0.85;;;0.70;;
21729;SDS011;11027;51.030;13.812;2023-01-15T03:32:48;1.92;;;0.70;;
21729;SDS011;11027;51.030;13.812;2023-01-15T03:38:09;0.88;;;0.85;;
21729;SDS011;11027;51.030;13.812;2023-01-15T03:40:36;1.77;;;0.90;;
21729;SDS011;11027;51.030;13.812;2023-01-15T03:43:08;1.40;;;0.90;;
21729;SDS011;11027;51.030;13.812;2023-01-15T03:45:58;1.75;;;0.70;;
21729;SDS011;11027;51.030;13.812;2023-01-15T03:48:32;1.67;;;1.00;;
21729;SDS011;11027;51.030;13.812;2023-01-15T03:51:06;1.75;;;0.90;;
21729;SDS011;11027;51.030;13.812;2023-01-15T03:53:48;1.45;;;0.90;;
21729;SDS011;11027;51.030;13.812;2023-01-15T04:01:17;0.50;;;0.50;;
21729;SDS011;11027;51.030;13.812;2023-01-15T04:03:46;1.63;;;0.70;;
21729;SDS011;11027;51.030;13.812;2023-01-15T04:06:14;1.13;;;0.80;;
21729;SDS011;11027;51.030;13.812;2023-01-15T04:08:40;1.10;;;0.80;;
21729;SDS011;11027;51.030;13.812;2023-01-15T04:11:07;1.20;;;0.80;;
21729;SDS011;11027;51.030;13.812;2023-01-15T04:13:33;0.98;;;0.93;;
21729;SDS011;11027;51.030;13.812;2023-01-15T04:15:58;2.63;;;1.30;;
21729;SDS011;11027;51.030;13.812;2023-01-15T04:18:24;1.88;;;1.60;;
21729;SDS011;11027;51.030;13.812;2023-01-15T04:20:49;1.10;;;1.00;;
21729;SDS011;11027;51.030;13.812;2023-01-15T04:23:15;1.80;;;1.10;;
21729;SDS011;11027;51.030;13.812;2023-01-15T04:25:40;1.85;;;1.20;;
21729;SDS011;11027;51.030;13.812;2023-01-15T04:28:06;0.90;;;0.90;;
21729;SDS011;11027;51.030;13.812;2023-01-15T04:30:32;1.55;;;1.30;;
21729;SDS011;11027;51.030;13.812;2023-01-15T04:32:59;1.25;;;1.10;;
21729;SDS011;11027;51.030;13.812;2023-01-15T04:35:24;3.03;;;1.10;;
21729;SDS011;11027;51.030;13.812;2023-01-15T04:37:56;2.08;;;1.17;;
21729;SDS011;11027;51.030;13.812;2023-01-15T04:40:23;2.72;;;1.15;;
21729;SDS011;11027;51.030;13.812;2023-01-15T04:43:08;1.00;;;1.00;;
21729;SDS011;11027;51.030;13.812;2023-01-15T04:45:53;1.27;;;1.02;;
21729;SDS011;11027;51.030;13.812;2023-01-15T04:48:18;2.10;;;1.20;;
21729;SDS011;11027;51.030;13.812;2023-01-15T04:50:44;1.33;;;0.90;;
21729;SDS011;11027;51.030;13.812;2023-01-15T04:53:09;1.00;;;0.90;;
21729;SDS011;11027;51.030;13.812;2023-01-15T04:55:34;0.80;;;0.80;;
21729;SDS011;11027;51.030;13.812;2023-01-15T04:58:00;4.25;;;0.98;;
21729;SDS011;11027;51.030;13.812;2023-01-15T05:00:25;2.03;;;1.08;;
21729;SDS011;11027;51.030;13.812;2023-01-15T05:02:50;2.97;;;1.00;;
21729;SDS011;11027;51.030;13.812;2023-01-15T05:05:16;1.00;;;0.80;;
21729;SDS011;11027;51.030;13.812;2023-01-15T05:07:41;1.05;;;0.90;;
21729;SDS011;11027;51.030;13.812;2023-01-15T05:10:07;1.00;;;0.70;;
21729;SDS011;11027;51.030;13.812;2023-01-15T05:12:32;1.58;;;0.90;;
21729;SDS011;11027;51.030;13.812;2023-01-15T05:14:58;1.45;;;0.90;;
21729;SDS011;11027;51.030;13.812;2023-01-15T05:17:23;1.25;;;1.00;;
21729;SDS011;11027;51.030;13.812;2023-01-15T05:19:48;1.00;;;0.80;;
21729;SDS011;11027;51.030;13.812;2023-01-15T05:22:14;1.92;;;0.80;;
21729;SDS011;11027;51.030;13.812;2023-01-15T05:24:39;0.90;;;0.60;;
21729;SDS011;11027;51.030;13.812;2023-01-15T05:27:04;1.48;;;0.70;;
21729;SDS011;11027;51.030;13.812;2023-01-15T05:29:30;1.75;;;0.60;;
21729;SDS011;11027;51.030;13.812;2023-01-15T05:31:55;0.60;;;0.60;;
21729;SDS011;11027;51.030;13.812;2023-01-15T05:34:21;0.82;;;0.50;;
21729;SDS011;11027;51.030;13.812;2023-01-15T05:36:46;0.88;;;0.57;;
21729;SDS011;11027;51.030;13.812;2023-01-15T05:39:12;0.75;;;0.60;;
21729;SDS011;11027;51.030;13.812;2023-01-15T05:41:37;0.75;;;0.45;;
21729;SDS011;11027;51.030;13.812;2023-01-15T05:44:35;0.40;;;0.30;;
21729;SDS011;11027;51.030;13.812;2023-01-15T05:47:00;0.40;;;0.30;;
21729;SDS011;11027;51.030;13.812;2023-01-15T05:49:27;0.60;;;0.40;;
21729;SDS011;11027;51.030;13.812;2023-01-15T05:51:55;0.40;;;0.30;;
21729;SDS011;11027;51.030;13.812;2023-01-15T05:54:21;0.40;;;0.30;;
21729;SDS011;11027;51.030;13.812;2023-01-15T05:56:48;0.95;;;0.77;;
21729;SDS011;11027;51.030;13.812;2023-01-15T05:59:15;0.50;;;0.50;;
21729;SDS011;11027;51.030;13.812;2023-01-15T06:01:41;1.15;;;0.40;;
21729;SDS011;11027;51.030;13.812;2023-01-15T06:04:07;0.60;;;0.60;;
21729;SDS011;11027;51.030;13.812;2023-01-15T06:06:34;1.38;;;0.80;;
21729;SDS011;11027;51.030;13.812;2023-01-15T06:09:00;2.05;;;0.90;;
21729;SDS011;11027;51.030;13.812;2023-01-15T06:11:25;1.05;;;0.80;;
21729;SDS011;11027;51.030;13.812;2023-01-15T06:13:51;1.38;;;0.93;;
21729;SDS011;11027;51.030;13.812;2023-01-15T06:16:16;1.05;;;0.95;;
21729;SDS011;11027;51.030;13.812;2023-01-15T06:18:42;1.45;;;1.10;;
21729;SDS011;11027;51.030;13.812;2023-01-15T06:21:09;3.03;;;0.90;;
21729;SDS011;11027;51.030;13.812;2023-01-15T06:23:36;1.02;;;0.93;;
21729;SDS011;11027;51.030;13.812;2023-01-15T06:26:03;0.88;;;0.88;;
21729;SDS011;11027;51.030;13.812;2023-01-15T06:28:30;2.10;;;0.80;;
21729;SDS011;11027;51.030;13.812;2023-01-15T06:30:56;0.95;;;0.85;;
21729;SDS011;11027;51.030;13.812;2023-01-15T06:33:21;0.93;;;0.82;;
21729;SDS011;11027;51.030;13.812;2023-01-15T06:35:47;1.52;;;0.93;;
21729;SDS011;11027;51.030;13.812;2023-01-15T06:38:12;0.68;;;0.68;;
21729;SDS011;11027;51.030;13.812;2023-01-15T06:40:38;0.65;;;0.65;;
21729;SDS011;11027;51.030;13.812;2023-01-15T06:43:03;1.20;;;0.50;;
21729;SDS011;11027;51.030;13.812;2023-01-15T06:45:47;2.50;;;0.70;;
21729;SDS011;11027;51.030;13.812;2023-01-15T06:48:31;0.40;;;0.40;;
21729;SDS011;11027;51.030;13.812;2023-01-15T06:50:57;0.20;;;0.20;;
21729;SDS011;11027;51.030;13.812;2023-01-15T06:53:23;0.20;;;0.10;;
21729;SDS011;11027;51.030;13.812;2023-01-15T06:55:48;0.10;;;0.10;;
21729;SDS011;11027;51.030;13.812;2023-01-15T06:58:14;0.35;;;0.13;;
21729;SDS011;11027;51.030;13.812;2023-01-15T07:00:39;0.25;;;0.13;;
21729;SDS011;11027;51.030;13.812;2023-01-15T07:03:08;0.20;;;0.10;;
21729;SDS011;11027;51.030;13.812;2023-01-15T07:05:36;0.17;;;0.10;;
21729;SDS011;11027;51.030;13.812;2023-01-15T07:08:02;0.40;;;0.10;;
21729;SDS011;11027;51.030;13.812;2023-01-15T07:10:28;0.50;;;0.28;;
21729;SDS011;11027;51.030;13.812;2023-01-15T07:12:53;0.30;;;0.20;;
21729;SDS011;11027;51.030;13.812;2023-01-15T07:15:18;0.20;;;0.10;;
21729;SDS011;11027;51.030;13.812;2023-01-15T07:17:44;0.30;;;0.20;;
21729;SDS011;11027;51.030;13.812;2023-01-15T07:20:09;0.10;;;0.10;;
21729;SDS011;11027;51.030;13.812;2023-01-15T07:22:35;0.30;;;0.20;;
21729;SDS011;11027;51.030;13.812;2023-01-15T07:25:01;0.77;;;0.20;;
21729;SDS011;11027;51.030;13.812;2023-01-15T07:27:26;0.10;;;0.10;;
21729;SDS011;11027;51.030;13.812;2023-01-15T07:29:52;0.30;;;0.20;;
21729;SDS011;11027;51.030;13.812;2023-01-15T07:32:17;0.50;;;0.45;;
21729;SDS011;11027;51.030;13.812;2023-01-15T07:34:43;0.32;;;0.20;;
21729;SDS011;11027;51.030;13.812;2023-01-15T07:37:09;0.10;;;0.10;;
21729;SDS011;11027;51.030;13.812;2023-01-15T07:39:34;0.17;;;0.17;;
21729;SDS011;11027;51.030;13.812;2023-01-15T07:42:00;0.32;;;0.20;;
21729;SDS011;11027;51.030;13.812;2023-01-15T07:44:44;0.47;;;0.30;;
21729;SDS011;11027;51.030;13.812;2023-01-15T07:47:28;0.20;;;0.20;;
21729;SDS011;11027;51.030;13.812;2023-01-15T07:50:13;0.30;;;0.30;;
21729;SDS011;11027;51.030;13.812;2023-01-15T07:52:47;0.88;;;0.50;;
21729;SDS011;11027;51.030;13.812;2023-01-15T07:55:13;1.85;;;1.05;;
21729;SDS011;11027;51.030;13.812;2023-01-15T07:57:39;1.88;;;0.30;;
21729;SDS011;11027;51.030;13.812;2023-01-15T08:00:06;1.55;;;0.40;;
21729;SDS011;11027;51.030;13.812;2023-01-15T08:02:34;0.77;;;0.52;;
21729;SDS011;11027;51.030;13.812;2023-01-15T08:04:59;1.23;;;0.63;;
21729;SDS011;11027;51.030;13.812;2023-01-15T08:07:24;0.75;;;0.52;;
21729;SDS011;11027;51.030;13.812;2023-01-15T08:09:50;1.45;;;0.70;;
21729;SDS011;11027;51.030;13.812;2023-01-15T08:12:15;0.80;;;0.70;;
21729;SDS011;11027;51.030;13.812;2023-01-15T08:14:59;0.45;;;0.40;;
21729;SDS011;11027;51.030;13.812;2023-01-15T08:17:37;0.65;;;0.50;;
21729;SDS011;11027;51.030;13.812;2023-01-15T08:20:05;0.85;;;0.47;;
21729;SDS011;11027;51.030;13.812;2023-01-15T08:22:32;0.60;;;0.60;;
21729;SDS011;11027;51.030;13.812;2023-01-15T08:24:58;0.50;;;0.50;;
21729;SDS011;11027;51.030;13.812;2023-01-15T08:27:23;0.32;;;0.32;;
21729;SDS011;11027;51.030;13.812;2023-01-15T08:29:49;0.98;;;0.40;;
21729;SDS011;11027;51.030;13.812;2023-01-15T08:32:14;0.45;;;0.38;;
21729;SDS011;11027;51.030;13.812;2023-01-15T08:34:39;1.67;;;1.27;;
21729;SDS011;11027;51.030;13.812;2023-01-15T08:37:05;0.40;;;0.40;;
21729;SDS011;11027;51.030;13.812;2023-01-15T08:39:30;0.95;;;0.50;;
21729;SDS011;11027;51.030;13.812;2023-01-15T08:41:55;0.93;;;0.40;;
21729;SDS011;11027;51.030;13.812;2023-01-15T08:44:21;2.67;;;0.50;;
21729;SDS011;11027;51.030;13.812;2023-01-15T08:46:47;0.75;;;0.30;;
21729;SDS011;11027;51.030;13.812;2023-01-15T08:49:13;1.65;;;0.30;;
21729;SDS011;11027;51.030;13.812;2023-01-15T08:51:39;1.08;;;0.28;;
21729;SDS011;11027;51.030;13.812;2023-01-15T08:54:04;0.75;;;0.40;;
21729;SDS011;11027;51.030;13.812;2023-01-15T08:56:29;1.42;;;0.60;;
21729;SDS011;11027;51.030;13.812;2023-01-15T08:58:55;1.38;;;0.93;;
21729;SDS011;11027;51.030;13.812;2023-01-15T09:01:20;1.85;;;0.95;;
21729;SDS011;11027;51.030;13.812;2023-01-15T09:03:45;0.90;;;0.40;;
21729;SDS011;11027;51.030;13.812;2023-01-15T09:06:11;1.25;;;0.55;;
21729;SDS011;11027;51.030;13.812;2023-01-15T09:08:37;1.13;;;0.73;;
21729;SDS011;11027;51.030;13.812;2023-01-15T09:11:04;1.23;;;0.70;;
21729;SDS011;11027;51.030;13.812;2023-01-15T09:13:30;0.90;;;0.45;;
21729;SDS011;11027;51.030;13.812;2023-01-15T09:15:59;2.35;;;0.40;;
21729;SDS011;11027;51.030;13.812;2023-01-15T09:18:26;1.20;;;0.47;;
21729;SDS011;11027;51.030;13.812;2023-01-15T09:20:52;1.95;;;0.45;;
21729;SDS011;11027;51.030;13.812;2023-01-15T09:23:18;0.75;;;0.38;;
21729;SDS011;11027;51.030;13.812;2023-01-15T09:25:56;0.98;;;0.47;;
21729;SDS011;11027;51.030;13.812;2023-01-15T09:28:26;0.80;;;0.50;;
21729;SDS011;11027;51.030;13.812;2023-01-15T09:30:55;1.27;;;0.68;;
21729;SDS011;11027;51.030;13.812;2023-01-15T09:33:21;0.80;;;0.70;;
21729;SDS011;11027;51.030;13.812;2023-01-15T09:35:46;1.33;;;0.80;;
21729;SDS011;11027;51.030;13.812;2023-01-15T09:38:15;1.73;;;0.70;;
21729;SDS011;11027;51.030;13.812;2023-01-15T09:40:45;1.05;;;0.70;;
21729;SDS011;11027;51.030;13.812;2023-01-15T09:46:07;1.67;;;0.47;;
21729;SDS011;11027;51.030;13.812;2023-01-15T09:51:10;1.90;;;0.65;;
21729;SDS011;11027;51.030;13.812;2023-01-15T09:53:44;1.58;;;0.60;;
21729;SDS011;11027;51.030;13.812;2023-01-15T09:56:21;0.88;;;0.47;;
21729;SDS011;11027;51.030;13.812;2023-01-15T09:58:49;0.63;;;0.60;;
21729;SDS011;11027;51.030;13.812;2023-01-15T10:01:17;1.15;;;0.50;;
21729;SDS011;11027;51.030;13.812;2023-01-15T10:03:48;1.08;;;0.60;;
21729;SDS011;11027;51.030;13.812;2023-01-15T10:06:24;0.95;;;0.45;;
21729;SDS011;11027;51.030;13.812;2023-01-15T10:08:56;0.95;;;0.70;;
21729;SDS011;11027;51.030;13.812;2023-01-15T10:11:34;0.63;;;0.55;;
21729;SDS011;11027;51.030;13.812;2023-01-15T10:14:36;1.30;;;0.70;;
21729;SDS011;11027;51.030;13.812;2023-01-15T10:17:36;0.80;;;0.57;;
21729;SDS011;11027;51.030;13.812;2023-01-15T10:20:10;1.00;;;0.80;;
21729;SDS011;11027;51.030;13.812;2023-01-15T10:28:42;4.40;;;2.40;;
21729;SDS011;11027;51.030;13.812;2023-01-15T10:40:11;3.97;;;2.20;;
21729;SDS011;11027;51.030;13.812;2023-01-15T10:45:26;2.60;;;2.20;;
21729;SDS011;11027;51.030;13.812;2023-01-15T10:48:11;1.70;;;1.40;;
21729;SDS011;11027;51.030;13.812;2023-01-15T10:50:42;1.27;;;0.80;;
21729;SDS011;11027;51.030;13.812;2023-01-15T10:53:13;0.70;;;0.55;;
21729;SDS011;11027;51.030;13.812;2023-01-15T10:55:46;0.93;;;0.70;;
21729;SDS011;11027;51.030;13.812;2023-01-15T11:00:51;0.40;;;0.40;;
21729;SDS011;11027;51.030;13.812;2023-01-15T11:03:25;0.50;;;0.30;;
21729;SDS011;11027;51.030;13.812;2023-01-15T11:05:59;0.30;;;0.20;;
21729;SDS011;11027;51.030;13.812;2023-01-15T11:08:25;1.48;;;0.40;;
21729;SDS011;11027;51.030;13.812;2023-01-15T11:10:53;0.35;;;0.28;;
21729;SDS011;11027;51.030;13.812;2023-01-15T11:13:21;0.50;;;0.30;;
21729;SDS011;11027;51.030;13.812;2023-01-15T11:16:16;0.22;;;0.22;;
21729;SDS011;11027;51.030;13.812;2023-01-15T11:19:05;1.05;;;0.38;;
21729;SDS011;11027;51.030;13.812;2023-01-15T11:21:59;0.50;;;0.50;;
21729;SDS011;11027;51.030;13.812;2023-01-15T11:24:25;1.15;;;0.60;;
21729;SDS011;11027;51.030;13.812;2023-01-15T11:26:50;0.40;;;0.30;;
21729;SDS011;11027;51.030;13.812;2023-01-15T11:29:28;0.93;;;0.38;;
21729;SDS011;11027;51.030;13.812;2023-01-15T11:31:57;1.75;;;0.60;;
21729;SDS011;11027;51.030;13.812;2023-01-15T11:34:22;1.15;;;0.80;;
21729;SDS011;11027;51.030;13.812;2023-01-15T11:36:48;0.60;;;0.30;;
21729;SDS011;11027;51.030;13.812;2023-01-15T11:39:25;1.67;;;0.98;;
21729;SDS011;11027;51.030;13.812;2023-01-15T11:41:59;0.85;;;0.60;;
21729;SDS011;11027;51.030;13.812;2023-01-15T11:44:54;0.90;;;0.50;;
21729;SDS011;11027;51.030;13.812;2023-01-15T11:47:49;0.60;;;0.60;;
21729;SDS011;11027;51.030;13.812;2023-01-15T11:50:34;1.42;;;0.82;;
21729;SDS011;11027;51.030;13.812;2023-01-15T11:53:12;0.50;;;0.40;;
21729;SDS011;11027;51.030;13.812;2023-01-15T11:55:59;1.23;;;0.55;;
21729;SDS011;11027;51.030;13.812;2023-01-15T11:59:12;0.43;;;0.43;;
21729;SDS011;11027;51.030;13.812;2023-01-15T12:01:28;0.50;;;0.40;;
21729;SDS011;11027;51.030;13.812;2023-01-15T12:03:57;0.73;;;0.43;;
21729;SDS011;11027;51.030;13.812;2023-01-15T12:06:24;1.10;;;0.50;;
21729;SDS011;11027;51.030;13.812;2023-01-15T12:08:51;1.00;;;0.55;;
21729;SDS011;11027;51.030;13.812;2023-01-15T12:11:44;0.40;;;0.40;;
21729;SDS011;11027;51.030;13.812;2023-01-15T12:17:24;0.65;;;0.30;;
21729;SDS011;11027;51.030;13.812;2023-01-15T12:20:04;0.38;;;0.32;;
21729;SDS011;11027;51.030;13.812;2023-01-15T12:28:15;0.50;;;0.50;;
21729;SDS011;11027;51.030;13.812;2023-01-15T12:30:59;0.32;;;0.30;;
21729;SDS011;11027;51.030;13.812;2023-01-15T12:38:55;0.60;;;0.40;;
21729;SDS011;11027;51.030;13.812;2023-01-15T12:41:28;2.30;;;0.82;;
21729;SDS011;11027;51.030;13.812;2023-01-15T12:44:24;0.68;;;0.47;;
21729;SDS011;11027;51.030;13.812;2023-01-15T12:47:13;0.90;;;0.60;;
21729;SDS011;11027;51.030;13.812;2023-01-15T12:49:45;1.10;;;0.50;;
21729;SDS011;11027;51.030;13.812;2023-01-15T12:52:17;0.98;;;0.50;;
21729;SDS011;11027;51.030;13.812;2023-01-15T12:57:33;0.83;;;0.60;;
21729;SDS011;11027;51.030;13.812;2023-01-15T13:00:10;0.77;;;0.70;;
21729;SDS011;11027;51.030;13.812;2023-01-15T13:02:55;0.50;;;0.40;;
21729;SDS011;11027;51.030;13.812;2023-01-15T13:05:30;0.70;;;0.30;;
21729;SDS011;11027;51.030;13.812;2023-01-15T13:08:03;1.00;;;0.45;;
21729;SDS011;11027;51.030;13.812;2023-01-15T13:10:37;0.52;;;0.40;;
21729;SDS011;11027;51.030;13.812;2023-01-15T13:15:44;4.38;;;0.60;;
21729;SDS011;11027;51.030;13.812;2023-01-15T13:18:21;0.47;;;0.30;;
21729;SDS011;11027;51.030;13.812;2023-01-15T13:20:49;4.95;;;3.35;;
21729;SDS011;11027;51.030;13.812;2023-01-15T13:26:39;0.57;;;0.40;;
21729;SDS011;11027;51.030;13.812;2023-01-15T13:30:10;0.70;;;0.30;;
21729;SDS011;11027;51.030;13.812;2023-01-15T13:32:27;0.65;;;0.40;;
21729;SDS011;11027;51.030;13.812;2023-01-15T13:38:04;1.98;;;0.50;;
21729;SDS011;11027;51.030;13.812;2023-01-15T13:40:40;1.30;;;0.60;;
21729;SDS011;11027;51.030;13.812;2023-01-15T13:43:20;1.45;;;0.60;;
21729;SDS011;11027;51.030;13.812;2023-01-15T13:45:48;0.85;;;0.43;;
21729;SDS011;11027;51.030;13.812;2023-01-15T13:48:19;0.77;;;0.50;;
21729;SDS011;11027;51.030;13.812;2023-01-15T13:50:54;0.45;;;0.38;;
21729;SDS011;11027;51.030;13.812;2023-01-15T13:53:31;0.82;;;0.50;;
21729;SDS011;11027;51.030;13.812;2023-01-15T13:56:09;1.30;;;0.63;;
21729;SDS011;11027;51.030;13.812;2023-01-15T13:58:39;0.40;;;0.40;;
21729;SDS011;11027;51.030;13.812;2023-01-15T14:03:53;0.20;;;0.20;;
21729;SDS011;11027;51.030;13.812;2023-01-15T14:06:48;0.40;;;0.20;;
21729;SDS011;11027;51.030;13.812;2023-01-15T14:17:59;0.85;;;0.30;;
21729;SDS011;11027;51.030;13.812;2023-01-15T14:29:12;0.45;;;0.35;;
21729;SDS011;11027;51.030;13.812;2023-01-15T14:31:57;0.52;;;0.38;;
21729;SDS011;11027;51.030;13.812;2023-01-15T14:34:52;0.40;;;0.30;;
21729;SDS011;11027;51.030;13.812;2023-01-15T14:37:28;0.50;;;0.30;;
21729;SDS011;11027;51.030;13.812;2023-01-15T14:39:59;0.65;;;0.38;;
21729;SDS011;11027;51.030;13.812;2023-01-15T14:45:17;1.13;;;0.20;;
21729;SDS011;11027;51.030;13.812;2023-01-15T14:47:50;0.32;;;0.30;;
21729;SDS011;11027;51.030;13.812;2023-01-15T14:50:25;0.52;;;0.30;;
21729;SDS011;11027;51.030;13.812;2023-01-15T14:53:16;0.75;;;0.28;;
21729;SDS011;11027;51.030;13.812;2023-01-15T14:55:49;0.32;;;0.30;;
21729;SDS011;11027;51.030;13.812;2023-01-15T14:58:30;0.43;;;0.25;;
21729;SDS011;11027;51.030;13.812;2023-01-15T15:01:04;0.40;;;0.30;;
21729;SDS011;11027;51.030;13.812;2023-01-15T15:03:39;1.52;;;0.25;;
21729;SDS011;11027;51.030;13.812;2023-01-15T15:06:13;0.30;;;0.30;;
21729;SDS011;11027;51.030;13.812;2023-01-15T15:08:39;0.68;;;0.38;;
21729;SDS011;11027;51.030;13.812;2023-01-15T15:11:07;0.43;;;0.32;;
21729;SDS011;11027;51.030;13.812;2023-01-15T15:14:02;1.20;;;0.80;;
21729;SDS011;11027;51.030;13.812;2023-01-15T15:16:31;1.42;;;0.35;;
21729;SDS011;11027;51.030;13.812;2023-01-15T15:19:11;0.65;;;0.43;;
21729;SDS011;11027;51.030;13.812;2023-01-15T15:21:41;1.33;;;1.17;;
21729;SDS011;11027;51.030;13.812;2023-01-15T15:27:07;1.05;;;0.88;;
21729;SDS011;11027;51.030;13.812;2023-01-15T15:29:38;0.88;;;0.57;;
21729;SDS011;11027;51.030;13.812;2023-01-15T15:32:03;1.00;;;0.30;;
21729;SDS011;11027;51.030;13.812;2023-01-15T15:34:30;0.95;;;0.80;;
21729;SDS011;11027;51.030;13.812;2023-01-15T15:36:58;0.77;;;0.60;;
21729;SDS011;11027;51.030;13.812;2023-01-15T15:42:19;0.80;;;0.60;;
21729;SDS011;11027;51.030;13.812;2023-01-15T15:48:34;0.38;;;0.38;;
21729;SDS011;11027;51.030;13.812;2023-01-15T15:51:22;1.15;;;0.82;;
21729;SDS011;11027;51.030;13.812;2023-01-15T15:53:49;0.98;;;0.50;;
21729;SDS011;11027;51.030;13.812;2023-01-15T15:56:15;0.47;;;0.47;;
21729;SDS011;11027;51.030;13.812;2023-01-15T15:58:41;1.27;;;0.55;;
21729;SDS011;11027;51.030;13.812;2023-01-15T16:01:11;0.80;;;0.40;;
21729;SDS011;11027;51.030;13.812;2023-01-15T16:03:43;3.80;;;0.52;;
21729;SDS011;11027;51.030;13.812;2023-01-15T16:06:19;1.20;;;0.50;;
21729;SDS011;11027;51.030;13.812;2023-01-15T16:08:52;1.00;;;0.68;;
21729;SDS011;11027;51.030;13.812;2023-01-15T16:11:25;0.75;;;0.40;;
21729;SDS011;11027;51.030;13.812;2023-01-15T16:13:52;0.60;;;0.47;;
21729;SDS011;11027;51.030;13.812;2023-01-15T16:16:20;0.77;;;0.43;;
21729;SDS011;11027;51.030;13.812;2023-01-15T16:18:46;0.60;;;0.30;;
21729;SDS011;11027;51.030;13.812;2023-01-15T16:21:16;0.75;;;0.32;;
21729;SDS011;11027;51.030;13.812;2023-01-15T16:23:57;0.90;;;0.30;;
21729;SDS011;11027;51.030;13.812;2023-01-15T16:26:30;2.20;;;0.60;;
21729;SDS011;11027;51.030;13.812;2023-01-15T16:31:33;0.77;;;0.35;;
21729;SDS011;11027;51.030;13.812;2023-01-15T16:34:00;0.50;;;0.50;;
21729;SDS011;11027;51.030;13.812;2023-01-15T16:36:27;0.47;;;0.38;;
21729;SDS011;11027;51.030;13.812;2023-01-15T16:39:02;2.78;;;0.90;;